sensor_id;sensor_type;location;lat;lon;timestamp;temperature;humidity
12971;DHT22;6550;48.650;8.774;2023-05-07T00:00:25;10.80;99.90
12971;DHT22;6550;48.650;8.774;2023-05-07T00:02:54;10.80;99.90
12971;DHT22;6550;48.650;8.774;2023-05-07T00:05:23;11.10;99.90
12971;DHT22;6550;48.650;8.774;2023-05-07T00:07:53;11.10;99.90
12971;DHT22;6550;48.650;8.774;2023-05-07T00:10:28;11.00;99.90
12971;DHT22;6550;48.650;8.774;2023-05-07T00:12:54;11.00;99.90
12971;DHT22;6550;48.650;8.774;2023-05-07T00:15:21;11.10;99.90
12971;DHT22;6550;48.650;8.774;2023-05-07T00:20:18;11.30;99.90
12971;DHT22;6550;48.650;8.774;2023-05-07T00:22:47;11.10;99.90
12971;DHT22;6550;48.650;8.774;2023-05-07T00:25:13;11.10;99.90
12971;DHT22;6550;48.650;8.774;2023-05-07T00:27:40;11.10;99.90
12971;DHT22;6550;48.650;8.774;2023-05-07T00:30:07;11.00;99.90
12971;DHT22;6550;48.650;8.774;2023-05-07T00:32:35;10.90;99.90
12971;DHT22;6550;48.650;8.774;2023-05-07T00:35:06;11.00;99.90
12971;DHT22;6550;48.650;8.774;2023-05-07T00:37:36;11.00;99.90
12971;DHT22;6550;48.650;8.774;2023-05-07T00:40:06;11.20;99.90
12971;DHT22;6550;48.650;8.774;2023-05-07T00:42:34;11.30;99.90
12971;DHT22;6550;48.650;8.774;2023-05-07T00:45:03;11.30;99.90
12971;DHT22;6550;48.650;8.774;2023-05-07T00:47:31;11.30;99.90
12971;DHT22;6550;48.650;8.774;2023-05-07T00:49:58;11.20;99.90
12971;DHT22;6550;48.650;8.774;2023-05-07T00:52:27;10.80;99.90
12971;DHT22;6550;48.650;8.774;2023-05-07T00:54:55;11.10;99.90
12971;DHT22;6550;48.650;8.774;2023-05-07T00:57:22;11.20;99.90
12971;DHT22;6550;48.650;8.774;2023-05-07T00:59:53;11.20;99.90
12971;DHT22;6550;48.650;8.774;2023-05-07T01:02:21;11.10;99.90
12971;DHT22;6550;48.650;8.774;2023-05-07T01:04:53;11.10;99.90
12971;DHT22;6550;48.650;8.774;2023-05-07T01:09:49;11.30;99.90
12971;DHT22;6550;48.650;8.774;2023-05-07T01:12:16;11.40;99.90
12971;DHT22;6550;48.650;8.774;2023-05-07T01:14:43;11.20;99.90
12971;DHT22;6550;48.650;8.774;2023-05-07T01:17:12;11.30;99.90
12971;DHT22;6550;48.650;8.774;2023-05-07T01:19:39;11.10;99.90
12971;DHT22;6550;48.650;8.774;2023-05-07T01:22:10;11.00;99.90
12971;DHT22;6550;48.650;8.774;2023-05-07T01:27:07;11.00;99.90
12971;DHT22;6550;48.650;8.774;2023-05-07T01:29:34;10.60;99.90
12971;DHT22;6550;48.650;8.774;2023-05-07T01:32:02;10.80;99.90
12971;DHT22;6550;48.650;8.774;2023-05-07T01:34:32;10.60;99.90
12971;DHT22;6550;48.650;8.774;2023-05-07T01:36:59;10.70;99.90
12971;DHT22;6550;48.650;8.774;2023-05-07T01:39:29;10.70;99.90
12971;DHT22;6550;48.650;8.774;2023-05-07T01:44:26;11.00;99.90
12971;DHT22;6550;48.650;8.774;2023-05-07T01:46:58;10.80;99.90
12971;DHT22;6550;48.650;8.774;2023-05-07T01:49:28;10.90;99.90
12971;DHT22;6550;48.650;8.774;2023-05-07T01:51:55;10.80;99.90
12971;DHT22;6550;48.650;8.774;2023-05-07T01:54:26;10.40;99.90
12971;DHT22;6550;48.650;8.774;2023-05-07T01:56:56;10.60;99.90
12971;DHT22;6550;48.650;8.774;2023-05-07T01:59:25;10.80;99.90
12971;DHT22;6550;48.650;8.774;2023-05-07T02:01:52;11.00;99.90
12971;DHT22;6550;48.650;8.774;2023-05-07T02:04:19;10.80;99.90
12971;DHT22;6550;48.650;8.774;2023-05-07T02:06:45;10.90;99.90
12971;DHT22;6550;48.650;8.774;2023-05-07T02:09:13;11.00;99.90
12971;DHT22;6550;48.650;8.774;2023-05-07T02:11:46;10.90;99.90
12971;DHT22;6550;48.650;8.774;2023-05-07T02:14:13;11.00;99.90
12971;DHT22;6550;48.650;8.774;2023-05-07T02:16:39;10.70;99.90
12971;DHT22;6550;48.650;8.774;2023-05-07T02:19:09;10.80;99.90
12971;DHT22;6550;48.650;8.774;2023-05-07T02:21:37;10.70;99.90
12971;DHT22;6550;48.650;8.774;2023-05-07T02:24:07;10.80;99.90
12971;DHT22;6550;48.650;8.774;2023-05-07T02:26:33;10.90;99.90
12971;DHT22;6550;48.650;8.774;2023-05-07T02:29:00;10.70;99.90
12971;DHT22;6550;48.650;8.774;2023-05-07T02:31:29;10.70;99.90
12971;DHT22;6550;48.650;8.774;2023-05-07T02:33:56;10.60;99.90
12971;DHT22;6550;48.650;8.774;2023-05-07T02:38:55;10.10;99.90
12971;DHT22;6550;48.650;8.774;2023-05-07T02:41:22;10.20;99.90
12971;DHT22;6550;48.650;8.774;2023-05-07T02:43:48;10.20;99.90
12971;DHT22;6550;48.650;8.774;2023-05-07T02:46:15;10.30;99.90
12971;DHT22;6550;48.650;8.774;2023-05-07T02:48:44;10.10;99.90
12971;DHT22;6550;48.650;8.774;2023-05-07T02:51:13;10.20;99.90
12971;DHT22;6550;48.650;8.774;2023-05-07T02:53:40;10.10;99.90
12971;DHT22;6550;48.650;8.774;2023-05-07T02:56:07;10.20;99.90
12971;DHT22;6550;48.650;8.774;2023-05-07T02:58:34;10.30;99.90
12971;DHT22;6550;48.650;8.774;2023-05-07T03:01:01;10.20;99.90
12971;DHT22;6550;48.650;8.774;2023-05-07T03:03:27;10.30;99.90
12971;DHT22;6550;48.650;8.774;2023-05-07T03:05:57;9.70;99.90
12971;DHT22;6550;48.650;8.774;2023-05-07T03:08:24;9.60;99.90
12971;DHT22;6550;48.650;8.774;2023-05-07T03:10:55;9.80;99.90
12971;DHT22;6550;48.650;8.774;2023-05-07T03:13:22;10.00;99.90
12971;DHT22;6550;48.650;8.774;2023-05-07T03:15:49;10.20;99.90
12971;DHT22;6550;48.650;8.774;2023-05-07T03:18:18;10.00;99.90
12971;DHT22;6550;48.650;8.774;2023-05-07T03:20:51;9.60;99.90
12971;DHT22;6550;48.650;8.774;2023-05-07T03:23:18;9.60;99.90
12971;DHT22;6550;48.650;8.774;2023-05-07T03:25:44;9.60;99.90
12971;DHT22;6550;48.650;8.774;2023-05-07T03:28:13;9.70;99.90
12971;DHT22;6550;48.650;8.774;2023-05-07T03:30:40;10.00;99.90
12971;DHT22;6550;48.650;8.774;2023-05-07T03:33:07;10.10;99.90
12971;DHT22;6550;48.650;8.774;2023-05-07T03:35:33;9.80;99.90
12971;DHT22;6550;48.650;8.774;2023-05-07T03:38:05;9.80;99.90
12971;DHT22;6550;48.650;8.774;2023-05-07T03:40:34;10.00;99.90
12971;DHT22;6550;48.650;8.774;2023-05-07T03:43:00;10.00;99.90
12971;DHT22;6550;48.650;8.774;2023-05-07T03:45:27;9.90;99.90
12971;DHT22;6550;48.650;8.774;2023-05-07T03:47:56;9.20;99.90
12971;DHT22;6550;48.650;8.774;2023-05-07T03:50:23;9.20;99.90
12971;DHT22;6550;48.650;8.774;2023-05-07T03:52:52;9.20;99.90
12971;DHT22;6550;48.650;8.774;2023-05-07T03:55:18;9.30;99.90
12971;DHT22;6550;48.650;8.774;2023-05-07T03:57:45;9.30;99.90
12971;DHT22;6550;48.650;8.774;2023-05-07T04:00:13;9.70;99.90
12971;DHT22;6550;48.650;8.774;2023-05-07T04:02:39;9.60;99.90
12971;DHT22;6550;48.650;8.774;2023-05-07T04:05:09;9.30;99.90
12971;DHT22;6550;48.650;8.774;2023-05-07T04:07:36;9.30;99.90
12971;DHT22;6550;48.650;8.774;2023-05-07T04:10:03;9.40;99.90
12971;DHT22;6550;48.650;8.774;2023-05-07T04:12:32;9.50;99.90
12971;DHT22;6550;48.650;8.774;2023-05-07T04:15:01;9.50;99.90
12971;DHT22;6550;48.650;8.774;2023-05-07T04:17:29;9.50;99.90
12971;DHT22;6550;48.650;8.774;2023-05-07T04:19:56;9.40;99.90
12971;DHT22;6550;48.650;8.774;2023-05-07T04:24:50;9.50;99.90
12971;DHT22;6550;48.650;8.774;2023-05-07T04:27:22;9.40;99.90
12971;DHT22;6550;48.650;8.774;2023-05-07T04:29:48;9.60;99.90
12971;DHT22;6550;48.650;8.774;2023-05-07T04:32:16;9.60;99.90
12971;DHT22;6550;48.650;8.774;2023-05-07T04:34:42;9.20;99.90
12971;DHT22;6550;48.650;8.774;2023-05-07T04:37:09;9.30;99.90
12971;DHT22;6550;48.650;8.774;2023-05-07T04:39:38;9.50;99.90
12971;DHT22;6550;48.650;8.774;2023-05-07T04:42:05;9.50;99.90
12971;DHT22;6550;48.650;8.774;2023-05-07T04:44:37;9.30;99.90
12971;DHT22;6550;48.650;8.774;2023-05-07T04:47:04;9.50;99.90
12971;DHT22;6550;48.650;8.774;2023-05-07T04:49:34;9.60;99.90
12971;DHT22;6550;48.650;8.774;2023-05-07T04:52:03;9.90;99.90
12971;DHT22;6550;48.650;8.774;2023-05-07T04:54:30;9.50;99.90
12971;DHT22;6550;48.650;8.774;2023-05-07T04:56:56;9.70;99.90
12971;DHT22;6550;48.650;8.774;2023-05-07T04:59:26;9.40;99.90
12971;DHT22;6550;48.650;8.774;2023-05-07T05:01:54;9.50;99.90
12971;DHT22;6550;48.650;8.774;2023-05-07T05:04:22;9.80;99.90
12971;DHT22;6550;48.650;8.774;2023-05-07T05:06:52;10.00;99.90
12971;DHT22;6550;48.650;8.774;2023-05-07T05:09:18;10.00;99.90
12971;DHT22;6550;48.650;8.774;2023-05-07T05:11:50;10.30;99.90
12971;DHT22;6550;48.650;8.774;2023-05-07T05:14:19;9.80;99.90
12971;DHT22;6550;48.650;8.774;2023-05-07T05:16:48;9.90;99.90
12971;DHT22;6550;48.650;8.774;2023-05-07T05:19:17;10.10;99.90
12971;DHT22;6550;48.650;8.774;2023-05-07T05:21:44;10.40;99.90
12971;DHT22;6550;48.650;8.774;2023-05-07T05:24:11;10.50;99.90
12971;DHT22;6550;48.650;8.774;2023-05-07T05:26:37;10.70;99.90
12971;DHT22;6550;48.650;8.774;2023-05-07T05:29:09;10.90;99.90
12971;DHT22;6550;48.650;8.774;2023-05-07T05:34:03;11.10;99.90
12971;DHT22;6550;48.650;8.774;2023-05-07T05:36:32;11.30;99.90
12971;DHT22;6550;48.650;8.774;2023-05-07T05:38:59;11.30;99.90
12971;DHT22;6550;48.650;8.774;2023-05-07T05:41:26;11.40;99.90
12971;DHT22;6550;48.650;8.774;2023-05-07T05:43:52;11.60;99.90
12971;DHT22;6550;48.650;8.774;2023-05-07T05:46:24;11.80;99.90
12971;DHT22;6550;48.650;8.774;2023-05-07T05:48:51;12.00;99.90
12971;DHT22;6550;48.650;8.774;2023-05-07T05:51:21;12.20;99.90
12971;DHT22;6550;48.650;8.774;2023-05-07T05:56:17;12.20;99.90
12971;DHT22;6550;48.650;8.774;2023-05-07T05:58:44;12.10;99.90
12971;DHT22;6550;48.650;8.774;2023-05-07T06:01:10;12.70;99.90
12971;DHT22;6550;48.650;8.774;2023-05-07T06:03:38;12.40;99.90
12971;DHT22;6550;48.650;8.774;2023-05-07T06:06:05;12.40;99.90
12971;DHT22;6550;48.650;8.774;2023-05-07T06:08:31;12.60;99.90
12971;DHT22;6550;48.650;8.774;2023-05-07T06:10:58;12.70;99.90
12971;DHT22;6550;48.650;8.774;2023-05-07T06:13:26;12.90;99.90
12971;DHT22;6550;48.650;8.774;2023-05-07T06:15:53;13.00;99.90
12971;DHT22;6550;48.650;8.774;2023-05-07T06:18:22;13.10;99.90
12971;DHT22;6550;48.650;8.774;2023-05-07T06:20:49;14.00;99.90
12971;DHT22;6550;48.650;8.774;2023-05-07T06:25:49;13.60;99.90
12971;DHT22;6550;48.650;8.774;2023-05-07T06:28:23;13.60;99.90
12971;DHT22;6550;48.650;8.774;2023-05-07T06:30:50;13.80;99.90
12971;DHT22;6550;48.650;8.774;2023-05-07T06:33:22;14.20;99.90
12971;DHT22;6550;48.650;8.774;2023-05-07T06:35:51;14.10;99.90
12971;DHT22;6550;48.650;8.774;2023-05-07T06:38:18;14.10;99.90
12971;DHT22;6550;48.650;8.774;2023-05-07T06:40:49;14.40;99.90
12971;DHT22;6550;48.650;8.774;2023-05-07T06:45:42;14.80;99.90
12971;DHT22;6550;48.650;8.774;2023-05-07T06:48:11;14.70;99.90
12971;DHT22;6550;48.650;8.774;2023-05-07T06:53:05;15.20;99.90
12971;DHT22;6550;48.650;8.774;2023-05-07T06:55:34;15.40;99.90
12971;DHT22;6550;48.650;8.774;2023-05-07T06:58:07;15.80;99.90
12971;DHT22;6550;48.650;8.774;2023-05-07T07:03:01;16.30;99.90
12971;DHT22;6550;48.650;8.774;2023-05-07T07:05:31;16.70;99.90
12971;DHT22;6550;48.650;8.774;2023-05-07T07:08:00;17.00;99.90
12971;DHT22;6550;48.650;8.774;2023-05-07T07:10:26;17.00;99.90
12971;DHT22;6550;48.650;8.774;2023-05-07T07:12:53;17.30;99.90
12971;DHT22;6550;48.650;8.774;2023-05-07T07:15:20;17.50;99.90
12971;DHT22;6550;48.650;8.774;2023-05-07T07:17:51;17.70;99.90
12971;DHT22;6550;48.650;8.774;2023-05-07T07:22:52;17.80;99.90
12971;DHT22;6550;48.650;8.774;2023-05-07T07:25:19;17.80;99.90
12971;DHT22;6550;48.650;8.774;2023-05-07T07:27:48;18.00;99.90
12971;DHT22;6550;48.650;8.774;2023-05-07T07:32:42;18.10;99.90
12971;DHT22;6550;48.650;8.774;2023-05-07T07:35:09;18.30;99.90
12971;DHT22;6550;48.650;8.774;2023-05-07T07:37:39;18.50;99.90
12971;DHT22;6550;48.650;8.774;2023-05-07T07:40:06;18.50;99.90
12971;DHT22;6550;48.650;8.774;2023-05-07T07:42:35;18.20;99.90
12971;DHT22;6550;48.650;8.774;2023-05-07T07:45:04;18.20;99.90
12971;DHT22;6550;48.650;8.774;2023-05-07T07:47:31;18.40;99.90
12971;DHT22;6550;48.650;8.774;2023-05-07T07:49:58;18.70;99.90
12971;DHT22;6550;48.650;8.774;2023-05-07T07:52:25;19.10;99.90
12971;DHT22;6550;48.650;8.774;2023-05-07T07:54:52;19.50;99.90
12971;DHT22;6550;48.650;8.774;2023-05-07T07:59:53;19.70;99.20
12971;DHT22;6550;48.650;8.774;2023-05-07T08:02:20;20.00;98.00
12971;DHT22;6550;48.650;8.774;2023-05-07T08:04:51;20.00;99.00
12971;DHT22;6550;48.650;8.774;2023-05-07T08:07:21;20.10;98.90
12971;DHT22;6550;48.650;8.774;2023-05-07T08:09:50;20.20;98.80
12971;DHT22;6550;48.650;8.774;2023-05-07T08:12:17;20.00;99.00
12971;DHT22;6550;48.650;8.774;2023-05-07T08:14:43;20.00;99.70
12971;DHT22;6550;48.650;8.774;2023-05-07T08:17:10;20.00;99.90
12971;DHT22;6550;48.650;8.774;2023-05-07T08:19:42;20.00;99.90
12971;DHT22;6550;48.650;8.774;2023-05-07T08:22:10;20.20;99.90
12971;DHT22;6550;48.650;8.774;2023-05-07T08:24:39;20.30;99.80
12971;DHT22;6550;48.650;8.774;2023-05-07T08:27:08;20.60;99.50
12971;DHT22;6550;48.650;8.774;2023-05-07T08:29:35;20.40;98.30
12971;DHT22;6550;48.650;8.774;2023-05-07T08:32:04;20.30;98.60
12971;DHT22;6550;48.650;8.774;2023-05-07T08:34:30;20.50;99.70
12971;DHT22;6550;48.650;8.774;2023-05-07T08:36:57;20.80;98.50
12971;DHT22;6550;48.650;8.774;2023-05-07T08:39:26;20.80;98.00
12971;DHT22;6550;48.650;8.774;2023-05-07T08:41:55;20.80;98.00
12971;DHT22;6550;48.650;8.774;2023-05-07T08:44:26;20.70;97.90
12971;DHT22;6550;48.650;8.774;2023-05-07T08:46:56;20.80;97.70
12971;DHT22;6550;48.650;8.774;2023-05-07T08:49:27;20.80;98.40
12971;DHT22;6550;48.650;8.774;2023-05-07T08:51:54;20.90;96.90
12971;DHT22;6550;48.650;8.774;2023-05-07T08:54:24;21.30;96.40
12971;DHT22;6550;48.650;8.774;2023-05-07T08:56:52;21.30;96.20
12971;DHT22;6550;48.650;8.774;2023-05-07T08:59:23;21.50;96.40
12971;DHT22;6550;48.650;8.774;2023-05-07T09:01:50;21.80;96.60
12971;DHT22;6550;48.650;8.774;2023-05-07T09:04:19;21.80;95.80
12971;DHT22;6550;48.650;8.774;2023-05-07T09:06:45;21.70;96.10
12971;DHT22;6550;48.650;8.774;2023-05-07T09:09:17;21.80;96.10
12971;DHT22;6550;48.650;8.774;2023-05-07T09:14:13;22.30;94.40
12971;DHT22;6550;48.650;8.774;2023-05-07T09:16:40;22.50;94.00
12971;DHT22;6550;48.650;8.774;2023-05-07T09:19:07;22.60;93.30
12971;DHT22;6550;48.650;8.774;2023-05-07T09:21:36;23.00;92.80
12971;DHT22;6550;48.650;8.774;2023-05-07T09:24:03;23.20;91.90
12971;DHT22;6550;48.650;8.774;2023-05-07T09:26:34;23.00;91.20
12971;DHT22;6550;48.650;8.774;2023-05-07T09:29:03;23.20;92.00
12971;DHT22;6550;48.650;8.774;2023-05-07T09:31:35;23.60;91.10
12971;DHT22;6550;48.650;8.774;2023-05-07T09:34:05;24.00;90.50
12971;DHT22;6550;48.650;8.774;2023-05-07T09:36:32;24.40;90.60
12971;DHT22;6550;48.650;8.774;2023-05-07T09:39:00;24.70;89.00
12971;DHT22;6550;48.650;8.774;2023-05-07T09:41:26;24.90;88.00
12971;DHT22;6550;48.650;8.774;2023-05-07T09:43:54;25.00;89.60
12971;DHT22;6550;48.650;8.774;2023-05-07T09:46:25;25.10;84.80
12971;DHT22;6550;48.650;8.774;2023-05-07T09:48:58;25.10;84.00
12971;DHT22;6550;48.650;8.774;2023-05-07T09:51:51;25.30;83.90
12971;DHT22;6550;48.650;8.774;2023-05-07T09:54:17;25.30;84.30
12971;DHT22;6550;48.650;8.774;2023-05-07T09:56:45;25.50;84.40
12971;DHT22;6550;48.650;8.774;2023-05-07T09:59:16;25.60;81.70
12971;DHT22;6550;48.650;8.774;2023-05-07T10:01:46;25.80;81.90
12971;DHT22;6550;48.650;8.774;2023-05-07T10:04:15;25.80;81.70
12971;DHT22;6550;48.650;8.774;2023-05-07T10:06:44;25.90;81.00
12971;DHT22;6550;48.650;8.774;2023-05-07T10:09:14;25.90;80.10
12971;DHT22;6550;48.650;8.774;2023-05-07T10:11:44;26.00;79.60
12971;DHT22;6550;48.650;8.774;2023-05-07T10:14:14;26.20;80.10
12971;DHT22;6550;48.650;8.774;2023-05-07T10:16:41;26.10;79.20
12971;DHT22;6550;48.650;8.774;2023-05-07T10:19:10;25.30;80.70
12971;DHT22;6550;48.650;8.774;2023-05-07T10:21:44;24.90;80.20
12971;DHT22;6550;48.650;8.774;2023-05-07T10:24:29;25.20;81.40
12971;DHT22;6550;48.650;8.774;2023-05-07T10:27:01;25.80;80.50
12971;DHT22;6550;48.650;8.774;2023-05-07T10:29:44;25.70;80.00
12971;DHT22;6550;48.650;8.774;2023-05-07T10:32:33;26.00;79.30
12971;DHT22;6550;48.650;8.774;2023-05-07T10:35:04;26.40;79.10
12971;DHT22;6550;48.650;8.774;2023-05-07T10:37:33;26.50;76.90
12971;DHT22;6550;48.650;8.774;2023-05-07T10:40:05;26.70;77.30
12971;DHT22;6550;48.650;8.774;2023-05-07T10:42:37;26.80;76.40
12971;DHT22;6550;48.650;8.774;2023-05-07T10:45:13;26.90;75.60
12971;DHT22;6550;48.650;8.774;2023-05-07T10:50:46;26.80;73.60
12971;DHT22;6550;48.650;8.774;2023-05-07T10:55:50;26.70;74.20
12971;DHT22;6550;48.650;8.774;2023-05-07T10:58:29;26.30;71.80
12971;DHT22;6550;48.650;8.774;2023-05-07T11:01:00;26.10;74.00
12971;DHT22;6550;48.650;8.774;2023-05-07T11:03:30;25.90;72.10
12971;DHT22;6550;48.650;8.774;2023-05-07T11:08:55;25.10;70.20
12971;DHT22;6550;48.650;8.774;2023-05-07T11:11:47;25.20;70.00
12971;DHT22;6550;48.650;8.774;2023-05-07T11:17:08;24.30;70.80
12971;DHT22;6550;48.650;8.774;2023-05-07T11:19:52;24.50;71.30
12971;DHT22;6550;48.650;8.774;2023-05-07T11:22:38;23.70;72.20
12971;DHT22;6550;48.650;8.774;2023-05-07T11:25:17;23.60;75.50
12971;DHT22;6550;48.650;8.774;2023-05-07T11:27:45;22.60;81.10
12971;DHT22;6550;48.650;8.774;2023-05-07T11:30:21;21.80;85.00
12971;DHT22;6550;48.650;8.774;2023-05-07T11:32:48;21.60;85.90
12971;DHT22;6550;48.650;8.774;2023-05-07T11:35:18;21.20;87.60
12971;DHT22;6550;48.650;8.774;2023-05-07T11:37:45;21.50;87.80
12971;DHT22;6550;48.650;8.774;2023-05-07T11:40:13;21.40;86.80
12971;DHT22;6550;48.650;8.774;2023-05-07T11:42:41;21.50;86.90
12971;DHT22;6550;48.650;8.774;2023-05-07T11:45:09;21.30;87.20
12971;DHT22;6550;48.650;8.774;2023-05-07T11:47:41;20.70;88.80
12971;DHT22;6550;48.650;8.774;2023-05-07T11:50:10;20.50;90.00
12971;DHT22;6550;48.650;8.774;2023-05-07T11:52:37;20.30;91.30
12971;DHT22;6550;48.650;8.774;2023-05-07T11:55:07;20.00;92.30
12971;DHT22;6550;48.650;8.774;2023-05-07T11:57:36;19.40;94.70
12971;DHT22;6550;48.650;8.774;2023-05-07T12:00:03;19.20;97.60
12971;DHT22;6550;48.650;8.774;2023-05-07T12:02:31;18.50;99.90
12971;DHT22;6550;48.650;8.774;2023-05-07T12:05:00;18.70;99.90
12971;DHT22;6550;48.650;8.774;2023-05-07T12:07:27;18.60;99.90
12971;DHT22;6550;48.650;8.774;2023-05-07T12:09:54;19.10;99.90
12971;DHT22;6550;48.650;8.774;2023-05-07T12:12:21;19.50;99.90
12971;DHT22;6550;48.650;8.774;2023-05-07T12:14:48;19.70;99.90
12971;DHT22;6550;48.650;8.774;2023-05-07T12:17:15;19.80;99.90
12971;DHT22;6550;48.650;8.774;2023-05-07T12:19:44;19.70;99.90
12971;DHT22;6550;48.650;8.774;2023-05-07T12:22:12;19.30;99.90
12971;DHT22;6550;48.650;8.774;2023-05-07T12:25:03;19.30;99.90
12971;DHT22;6550;48.650;8.774;2023-05-07T12:27:32;19.40;99.90
12971;DHT22;6550;48.650;8.774;2023-05-07T12:30:05;19.40;99.90
12971;DHT22;6550;48.650;8.774;2023-05-07T12:32:32;19.50;99.90
12971;DHT22;6550;48.650;8.774;2023-05-07T12:35:03;19.40;99.90
12971;DHT22;6550;48.650;8.774;2023-05-07T12:37:35;19.10;99.90
12971;DHT22;6550;48.650;8.774;2023-05-07T12:42:36;18.60;99.90
12971;DHT22;6550;48.650;8.774;2023-05-07T12:45:16;18.00;99.90
12971;DHT22;6550;48.650;8.774;2023-05-07T12:47:49;18.20;99.90
12971;DHT22;6550;48.650;8.774;2023-05-07T12:50:16;18.30;99.90
12971;DHT22;6550;48.650;8.774;2023-05-07T12:52:45;18.40;99.90
12971;DHT22;6550;48.650;8.774;2023-05-07T12:55:14;18.60;99.90
12971;DHT22;6550;48.650;8.774;2023-05-07T12:57:47;18.80;99.90
12971;DHT22;6550;48.650;8.774;2023-05-07T13:00:14;19.00;99.90
12971;DHT22;6550;48.650;8.774;2023-05-07T13:02:44;18.90;99.90
12971;DHT22;6550;48.650;8.774;2023-05-07T13:05:12;18.90;99.90
12971;DHT22;6550;48.650;8.774;2023-05-07T13:07:39;18.90;99.90
12971;DHT22;6550;48.650;8.774;2023-05-07T13:10:07;19.00;99.90
12971;DHT22;6550;48.650;8.774;2023-05-07T13:12:36;18.70;99.90
12971;DHT22;6550;48.650;8.774;2023-05-07T13:15:03;18.40;99.90
12971;DHT22;6550;48.650;8.774;2023-05-07T13:17:30;18.40;99.90
12971;DHT22;6550;48.650;8.774;2023-05-07T13:20:00;18.30;99.90
12971;DHT22;6550;48.650;8.774;2023-05-07T13:22:27;18.40;99.90
12971;DHT22;6550;48.650;8.774;2023-05-07T13:24:53;18.20;99.90
12971;DHT22;6550;48.650;8.774;2023-05-07T13:27:20;18.30;99.90
12971;DHT22;6550;48.650;8.774;2023-05-07T13:32:14;18.20;99.90
12971;DHT22;6550;48.650;8.774;2023-05-07T13:34:43;18.10;99.90
12971;DHT22;6550;48.650;8.774;2023-05-07T13:37:12;18.10;99.90
12971;DHT22;6550;48.650;8.774;2023-05-07T13:39:39;18.20;99.90
12971;DHT22;6550;48.650;8.774;2023-05-07T13:42:10;18.00;99.90
12971;DHT22;6550;48.650;8.774;2023-05-07T13:44:37;18.00;99.90
12971;DHT22;6550;48.650;8.774;2023-05-07T13:47:06;18.10;99.90
12971;DHT22;6550;48.650;8.774;2023-05-07T13:49:37;18.10;99.90
12971;DHT22;6550;48.650;8.774;2023-05-07T13:54:31;18.20;99.90
12971;DHT22;6550;48.650;8.774;2023-05-07T13:57:00;18.20;99.90
12971;DHT22;6550;48.650;8.774;2023-05-07T13:59:28;18.20;99.90
12971;DHT22;6550;48.650;8.774;2023-05-07T14:01:57;18.20;99.90
12971;DHT22;6550;48.650;8.774;2023-05-07T14:04:26;18.20;99.90
12971;DHT22;6550;48.650;8.774;2023-05-07T14:06:53;18.10;99.90
12971;DHT22;6550;48.650;8.774;2023-05-07T14:09:20;17.80;99.90
12971;DHT22;6550;48.650;8.774;2023-05-07T14:11:47;17.80;99.90
12971;DHT22;6550;48.650;8.774;2023-05-07T14:14:18;17.60;99.90
12971;DHT22;6550;48.650;8.774;2023-05-07T14:16:47;17.60;99.90
12971;DHT22;6550;48.650;8.774;2023-05-07T14:19:16;17.50;99.90
12971;DHT22;6550;48.650;8.774;2023-05-07T14:21:43;17.50;99.90
12971;DHT22;6550;48.650;8.774;2023-05-07T14:24:10;17.70;99.90
12971;DHT22;6550;48.650;8.774;2023-05-07T14:26:39;17.50;99.90
12971;DHT22;6550;48.650;8.774;2023-05-07T14:29:05;17.50;99.90
12971;DHT22;6550;48.650;8.774;2023-05-07T14:31:35;17.70;99.90
12971;DHT22;6550;48.650;8.774;2023-05-07T14:34:02;17.90;99.90
12971;DHT22;6550;48.650;8.774;2023-05-07T14:36:28;18.10;99.90
12971;DHT22;6550;48.650;8.774;2023-05-07T14:38:56;18.00;99.90
12971;DHT22;6550;48.650;8.774;2023-05-07T14:41:25;18.20;99.90
12971;DHT22;6550;48.650;8.774;2023-05-07T14:43:54;18.20;99.90
12971;DHT22;6550;48.650;8.774;2023-05-07T14:46:25;18.30;99.90
12971;DHT22;6550;48.650;8.774;2023-05-07T14:48:56;18.40;99.90
12971;DHT22;6550;48.650;8.774;2023-05-07T14:51:27;18.40;99.90
12971;DHT22;6550;48.650;8.774;2023-05-07T14:56:22;18.40;99.90
12971;DHT22;6550;48.650;8.774;2023-05-07T14:58:51;18.30;99.90
12971;DHT22;6550;48.650;8.774;2023-05-07T15:01:26;18.40;99.90
12971;DHT22;6550;48.650;8.774;2023-05-07T15:03:55;18.60;99.90
12971;DHT22;6550;48.650;8.774;2023-05-07T15:06:22;18.80;99.90
12971;DHT22;6550;48.650;8.774;2023-05-07T15:08:51;18.70;99.90
12971;DHT22;6550;48.650;8.774;2023-05-07T15:11:18;18.70;99.90
12971;DHT22;6550;48.650;8.774;2023-05-07T15:13:49;18.90;99.90
12971;DHT22;6550;48.650;8.774;2023-05-07T15:16:20;19.00;99.90
12971;DHT22;6550;48.650;8.774;2023-05-07T15:18:49;19.20;99.90
12971;DHT22;6550;48.650;8.774;2023-05-07T15:21:16;19.20;99.90
12971;DHT22;6550;48.650;8.774;2023-05-07T15:23:45;19.10;99.90
12971;DHT22;6550;48.650;8.774;2023-05-07T15:26:12;19.20;99.90
12971;DHT22;6550;48.650;8.774;2023-05-07T15:28:39;19.40;99.90
12971;DHT22;6550;48.650;8.774;2023-05-07T15:31:08;19.40;99.90
12971;DHT22;6550;48.650;8.774;2023-05-07T15:33:35;19.80;99.90
12971;DHT22;6550;48.650;8.774;2023-05-07T15:36:07;19.90;99.90
12971;DHT22;6550;48.650;8.774;2023-05-07T15:38:34;20.10;99.90
12971;DHT22;6550;48.650;8.774;2023-05-07T15:41:01;20.20;99.90
12971;DHT22;6550;48.650;8.774;2023-05-07T15:43:27;20.20;99.90
12971;DHT22;6550;48.650;8.774;2023-05-07T15:45:56;20.20;99.90
12971;DHT22;6550;48.650;8.774;2023-05-07T15:48:29;20.20;99.90
12971;DHT22;6550;48.650;8.774;2023-05-07T15:50:56;20.20;99.90
12971;DHT22;6550;48.650;8.774;2023-05-07T15:53:22;20.10;99.90
12971;DHT22;6550;48.650;8.774;2023-05-07T15:55:49;20.10;99.90
12971;DHT22;6550;48.650;8.774;2023-05-07T15:58:16;20.20;99.90
12971;DHT22;6550;48.650;8.774;2023-05-07T16:00:45;20.30;99.90
12971;DHT22;6550;48.650;8.774;2023-05-07T16:03:12;20.20;99.90
12971;DHT22;6550;48.650;8.774;2023-05-07T16:05:42;20.10;99.90
12971;DHT22;6550;48.650;8.774;2023-05-07T16:08:13;20.10;99.90
12971;DHT22;6550;48.650;8.774;2023-05-07T16:10:40;20.10;99.90
12971;DHT22;6550;48.650;8.774;2023-05-07T16:13:07;20.20;99.90
12971;DHT22;6550;48.650;8.774;2023-05-07T16:15:33;20.30;99.90
12971;DHT22;6550;48.650;8.774;2023-05-07T16:18:03;20.20;99.90
12971;DHT22;6550;48.650;8.774;2023-05-07T16:20:30;20.10;99.90
12971;DHT22;6550;48.650;8.774;2023-05-07T16:22:58;20.10;99.90
12971;DHT22;6550;48.650;8.774;2023-05-07T16:25:24;20.20;99.90
12971;DHT22;6550;48.650;8.774;2023-05-07T16:27:55;20.40;99.90
12971;DHT22;6550;48.650;8.774;2023-05-07T16:32:52;20.50;99.90
12971;DHT22;6550;48.650;8.774;2023-05-07T16:35:19;20.60;99.90
12971;DHT22;6550;48.650;8.774;2023-05-07T16:40:16;20.60;99.90
12971;DHT22;6550;48.650;8.774;2023-05-07T16:42:45;20.60;99.90
12971;DHT22;6550;48.650;8.774;2023-05-07T16:45:11;20.40;99.90
12971;DHT22;6550;48.650;8.774;2023-05-07T16:47:39;20.40;99.90
12971;DHT22;6550;48.650;8.774;2023-05-07T16:50:06;20.30;99.90
12971;DHT22;6550;48.650;8.774;2023-05-07T16:52:33;20.30;99.90
12971;DHT22;6550;48.650;8.774;2023-05-07T16:55:02;20.10;99.90
12971;DHT22;6550;48.650;8.774;2023-05-07T16:57:30;20.10;99.90
12971;DHT22;6550;48.650;8.774;2023-05-07T16:59:59;19.90;99.90
12971;DHT22;6550;48.650;8.774;2023-05-07T17:02:26;19.80;99.90